sensor_id;sensor_type;location;lat;lon;timestamp;pressure;altitude;pressure_sealevel;temperature;humidity
44441;BME280;30146;52.268;20.944;2022-10-26T00:02:05;100481.17;;;13.45;73.93
44441;BME280;30146;52.268;20.944;2022-10-26T00:04:36;100482.50;;;13.47;73.96
44441;BME280;30146;52.268;20.944;2022-10-26T00:07:07;100475.59;;;13.50;74.19
44441;BME280;30146;52.268;20.944;2022-10-26T00:09:37;100481.56;;;13.52;74.16
44441;BME280;30146;52.268;20.944;2022-10-26T00:12:08;100482.41;;;13.52;74.19
44441;BME280;30146;52.268;20.944;2022-10-26T00:14:39;100482.92;;;13.53;74.13
44441;BME280;30146;52.268;20.944;2022-10-26T00:17:10;100487.35;;;13.54;74.09
44441;BME280;30146;52.268;20.944;2022-10-26T00:19:41;100489.02;;;13.57;74.26
44441;BME280;30146;52.268;20.944;2022-10-26T00:22:12;100487.45;;;13.58;74.20
44441;BME280;30146;52.268;20.944;2022-10-26T00:24:43;100486.56;;;13.59;74.26
44441;BME280;30146;52.268;20.944;2022-10-26T00:27:14;100484.63;;;13.62;74.26
44441;BME280;30146;52.268;20.944;2022-10-26T00:29:46;100482.05;;;13.63;74.29
44441;BME280;30146;52.268;20.944;2022-10-26T00:32:17;100485.14;;;13.62;74.31
44441;BME280;30146;52.268;20.944;2022-10-26T00:34:47;100487.20;;;13.62;74.22
44441;BME280;30146;52.268;20.944;2022-10-26T00:37:18;100487.38;;;13.62;74.27
44441;BME280;30146;52.268;20.944;2022-10-26T00:39:49;100486.52;;;13.62;74.35
44441;BME280;30146;52.268;20.944;2022-10-26T00:42:21;100484.25;;;13.64;74.42
44441;BME280;30146;52.268;20.944;2022-10-26T00:44:58;100488.52;;;13.64;74.39
44441;BME280;30146;52.268;20.944;2022-10-26T00:47:35;100491.29;;;13.64;74.27
44441;BME280;30146;52.268;20.944;2022-10-26T00:50:09;100487.34;;;13.64;74.28
44441;BME280;30146;52.268;20.944;2022-10-26T00:52:41;100489.73;;;13.64;74.24
44441;BME280;30146;52.268;20.944;2022-10-26T00:55:12;100488.04;;;13.63;74.21
44441;BME280;30146;52.268;20.944;2022-10-26T00:57:43;100489.73;;;13.64;74.33
44441;BME280;30146;52.268;20.944;2022-10-26T01:00:15;100487.33;;;13.65;74.42
44441;BME280;30146;52.268;20.944;2022-10-26T01:02:47;100487.64;;;13.65;74.44
44441;BME280;30146;52.268;20.944;2022-10-26T01:05:19;100485.23;;;13.66;74.47
44441;BME280;30146;52.268;20.944;2022-10-26T01:07:51;100486.23;;;13.67;74.53
44441;BME280;30146;52.268;20.944;2022-10-26T01:10:25;100490.54;;;13.66;74.38
44441;BME280;30146;52.268;20.944;2022-10-26T01:12:58;100490.73;;;13.66;74.33
44441;BME280;30146;52.268;20.944;2022-10-26T01:15:35;100488.16;;;13.65;74.39
44441;BME280;30146;52.268;20.944;2022-10-26T01:18:12;100489.38;;;13.65;74.35
44441;BME280;30146;52.268;20.944;2022-10-26T01:23:56;100496.71;;;13.67;74.47
44441;BME280;30146;52.268;20.944;2022-10-26T01:26:43;100498.08;;;13.68;74.50
44441;BME280;30146;52.268;20.944;2022-10-26T01:29:31;100496.70;;;13.69;74.40
44441;BME280;30146;52.268;20.944;2022-10-26T01:32:07;100495.66;;;13.68;74.25
44441;BME280;30146;52.268;20.944;2022-10-26T01:34:43;100498.80;;;13.66;74.17
44441;BME280;30146;52.268;20.944;2022-10-26T01:37:21;100501.95;;;13.63;74.20
44441;BME280;30146;52.268;20.944;2022-10-26T01:39:57;100498.03;;;13.62;74.23
44441;BME280;30146;52.268;20.944;2022-10-26T01:42:30;100500.09;;;13.62;74.41
44441;BME280;30146;52.268;20.944;2022-10-26T01:45:05;100501.45;;;13.62;74.41
44441;BME280;30146;52.268;20.944;2022-10-26T01:47:38;100501.81;;;13.62;74.33
44441;BME280;30146;52.268;20.944;2022-10-26T01:50:11;100502.70;;;13.61;74.37
44441;BME280;30146;52.268;20.944;2022-10-26T01:52:42;100504.38;;;13.62;74.54
44441;BME280;30146;52.268;20.944;2022-10-26T01:55:44;100504.40;;;13.61;74.50
44441;BME280;30146;52.268;20.944;2022-10-26T01:58:37;100508.69;;;13.61;74.51
44441;BME280;30146;52.268;20.944;2022-10-26T02:01:34;100504.71;;;13.62;74.60
44441;BME280;30146;52.268;20.944;2022-10-26T02:04:23;100500.94;;;13.62;74.65
44441;BME280;30146;52.268;20.944;2022-10-26T02:07:02;100501.63;;;13.63;74.73
44441;BME280;30146;52.268;20.944;2022-10-26T02:09:40;100505.56;;;13.63;74.71
44441;BME280;30146;52.268;20.944;2022-10-26T02:12:23;100506.56;;;13.64;74.67
44441;BME280;30146;52.268;20.944;2022-10-26T02:15:06;100511.35;;;13.65;74.75
44441;BME280;30146;52.268;20.944;2022-10-26T02:17:43;100510.48;;;13.66;74.75
44441;BME280;30146;52.268;20.944;2022-10-26T02:20:19;100511.70;;;13.65;74.81
44441;BME280;30146;52.268;20.944;2022-10-26T02:22:53;100518.23;;;13.65;74.74
44441;BME280;30146;52.268;20.944;2022-10-26T02:25:28;100518.10;;;13.63;74.60
44441;BME280;30146;52.268;20.944;2022-10-26T02:28:03;100521.72;;;13.62;74.72
44441;BME280;30146;52.268;20.944;2022-10-26T02:30:37;100524.80;;;13.63;74.73
44441;BME280;30146;52.268;20.944;2022-10-26T02:33:09;100522.02;;;13.64;74.72
44441;BME280;30146;52.268;20.944;2022-10-26T02:35:45;100520.47;;;13.64;74.81
44441;BME280;30146;52.268;20.944;2022-10-26T02:38:19;100523.60;;;13.63;74.68
44441;BME280;30146;52.268;20.944;2022-10-26T02:40:52;100519.33;;;13.62;74.58
44441;BME280;30146;52.268;20.944;2022-10-26T02:43:25;100519.36;;;13.61;74.66
44441;BME280;30146;52.268;20.944;2022-10-26T02:46:01;100517.30;;;13.61;74.67
44441;BME280;30146;52.268;20.944;2022-10-26T02:48:33;100521.27;;;13.59;74.57
44441;BME280;30146;52.268;20.944;2022-10-26T02:51:10;100525.58;;;13.58;74.56
44441;BME280;30146;52.268;20.944;2022-10-26T02:53:48;100529.38;;;13.57;74.60
44441;BME280;30146;52.268;20.944;2022-10-26T02:56:23;100531.63;;;13.56;74.69
44441;BME280;30146;52.268;20.944;2022-10-26T02:58:58;100535.42;;;13.56;74.73
44441;BME280;30146;52.268;20.944;2022-10-26T03:01:31;100534.39;;;13.55;74.75
44441;BME280;30146;52.268;20.944;2022-10-26T03:04:03;100537.16;;;13.54;74.57
44441;BME280;30146;52.268;20.944;2022-10-26T03:06:34;100537.02;;;13.54;74.57
44441;BME280;30146;52.268;20.944;2022-10-26T03:09:05;100544.21;;;13.54;74.75
44441;BME280;30146;52.268;20.944;2022-10-26T03:11:36;100541.65;;;13.53;74.65
44441;BME280;30146;52.268;20.944;2022-10-26T03:14:07;100545.60;;;13.53;74.75
44441;BME280;30146;52.268;20.944;2022-10-26T03:16:38;100545.08;;;13.53;74.68
44441;BME280;30146;52.268;20.944;2022-10-26T03:19:09;100547.48;;;13.53;74.58
44441;BME280;30146;52.268;20.944;2022-10-26T03:21:40;100554.19;;;13.54;74.72
44441;BME280;30146;52.268;20.944;2022-10-26T03:24:11;100557.96;;;13.54;74.72
44441;BME280;30146;52.268;20.944;2022-10-26T03:26:42;100562.09;;;13.53;74.59
44441;BME280;30146;52.268;20.944;2022-10-26T03:29:13;100565.70;;;13.53;74.71
44441;BME280;30146;52.268;20.944;2022-10-26T03:31:44;100561.58;;;13.52;74.64
44441;BME280;30146;52.268;20.944;2022-10-26T03:34:15;100563.97;;;13.54;74.66
44441;BME280;30146;52.268;20.944;2022-10-26T03:36:46;100561.88;;;13.55;74.74
44441;BME280;30146;52.268;20.944;2022-10-26T03:39:17;100564.27;;;13.55;74.65
44441;BME280;30146;52.268;20.944;2022-10-26T03:41:47;100565.34;;;13.53;74.61
44441;BME280;30146;52.268;20.944;2022-10-26T03:44:18;100562.43;;;13.53;74.59
44441;BME280;30146;52.268;20.944;2022-10-26T03:46:49;100566.73;;;13.52;74.63
44441;BME280;30146;52.268;20.944;2022-10-26T03:49:20;100574.27;;;13.53;74.59
44441;BME280;30146;52.268;20.944;2022-10-26T03:51:51;100581.67;;;13.53;74.45
44441;BME280;30146;52.268;20.944;2022-10-26T03:54:22;100582.56;;;13.51;74.40
44441;BME280;30146;52.268;20.944;2022-10-26T03:56:53;100583.14;;;13.47;74.25
44441;BME280;30146;52.268;20.944;2022-10-26T03:59:24;100581.30;;;13.44;74.35
44441;BME280;30146;52.268;20.944;2022-10-26T04:01:55;100580.64;;;13.42;74.40
44441;BME280;30146;52.268;20.944;2022-10-26T04:04:26;100579.48;;;13.41;74.36
44441;BME280;30146;52.268;20.944;2022-10-26T04:06:57;100577.77;;;13.40;74.27
44441;BME280;30146;52.268;20.944;2022-10-26T04:09:28;100575.73;;;13.39;74.40
44441;BME280;30146;52.268;20.944;2022-10-26T04:11:59;100577.12;;;13.38;74.35
44441;BME280;30146;52.268;20.944;2022-10-26T04:14:30;100577.31;;;13.37;74.35
44441;BME280;30146;52.268;20.944;2022-10-26T04:17:00;100580.93;;;13.36;74.48
44441;BME280;30146;52.268;20.944;2022-10-26T04:19:31;100586.27;;;13.36;74.44
44441;BME280;30146;52.268;20.944;2022-10-26T04:22:02;100585.93;;;13.35;74.36
44441;BME280;30146;52.268;20.944;2022-10-26T04:24:33;100587.29;;;13.36;74.43
44441;BME280;30146;52.268;20.944;2022-10-26T04:27:07;100586.94;;;13.36;74.30
44441;BME280;30146;52.268;20.944;2022-10-26T04:29:38;100586.11;;;13.34;74.30
44441;BME280;30146;52.268;20.944;2022-10-26T04:32:09;100589.42;;;13.32;74.28
44441;BME280;30146;52.268;20.944;2022-10-26T04:34:40;100594.23;;;13.32;74.23
44441;BME280;30146;52.268;20.944;2022-10-26T04:37:10;100595.77;;;13.32;74.26
44441;BME280;30146;52.268;20.944;2022-10-26T04:39:42;100596.80;;;13.32;74.30
44441;BME280;30146;52.268;20.944;2022-10-26T04:42:12;100593.35;;;13.33;74.33
44441;BME280;30146;52.268;20.944;2022-10-26T04:44:43;100596.08;;;13.34;74.35
44441;BME280;30146;52.268;20.944;2022-10-26T04:47:14;100599.85;;;13.34;74.39
44441;BME280;30146;52.268;20.944;2022-10-26T04:49:46;100600.00;;;13.35;74.46
44441;BME280;30146;52.268;20.944;2022-10-26T04:52:16;100599.81;;;13.37;74.39
44441;BME280;30146;52.268;20.944;2022-10-26T04:54:47;100602.89;;;13.37;74.22
44441;BME280;30146;52.268;20.944;2022-10-26T04:57:18;100605.46;;;13.37;74.30
44441;BME280;30146;52.268;20.944;2022-10-26T04:59:49;100607.02;;;13.37;74.23
44441;BME280;30146;52.268;20.944;2022-10-26T05:02:20;100614.92;;;13.36;74.25
44441;BME280;30146;52.268;20.944;2022-10-26T05:04:51;100617.34;;;13.35;74.26
44441;BME280;30146;52.268;20.944;2022-10-26T05:07:22;100618.42;;;13.32;74.06
44441;BME280;30146;52.268;20.944;2022-10-26T05:09:53;100618.60;;;13.31;74.10
44441;BME280;30146;52.268;20.944;2022-10-26T05:12:24;100622.39;;;13.31;74.10
44441;BME280;30146;52.268;20.944;2022-10-26T05:14:55;100623.75;;;13.30;74.16
44441;BME280;30146;52.268;20.944;2022-10-26T05:17:28;100625.64;;;13.30;74.21
44441;BME280;30146;52.268;20.944;2022-10-26T05:19:59;100625.13;;;13.30;74.24
44441;BME280;30146;52.268;20.944;2022-10-26T05:22:34;100633.55;;;13.31;74.19
44441;BME280;30146;52.268;20.944;2022-10-26T05:25:06;100635.44;;;13.31;73.98
44441;BME280;30146;52.268;20.944;2022-10-26T05:27:37;100637.66;;;13.31;73.95
44441;BME280;30146;52.268;20.944;2022-10-26T05:30:10;100644.52;;;13.33;74.08
44441;BME280;30146;52.268;20.944;2022-10-26T05:32:41;100643.65;;;13.33;74.11
44441;BME280;30146;52.268;20.944;2022-10-26T05:35:12;100644.34;;;13.33;74.09
44441;BME280;30146;52.268;20.944;2022-10-26T05:37:43;100643.81;;;13.34;74.10
44441;BME280;30146;52.268;20.944;2022-10-26T05:40:14;100644.50;;;13.34;73.99
44441;BME280;30146;52.268;20.944;2022-10-26T05:42:45;100646.02;;;13.34;74.03
44441;BME280;30146;52.268;20.944;2022-10-26T05:45:17;100654.09;;;13.35;74.04
44441;BME280;30146;52.268;20.944;2022-10-26T05:47:49;100650.50;;;13.34;74.14
44441;BME280;30146;52.268;20.944;2022-10-26T05:50:20;100656.49;;;13.35;74.04
44441;BME280;30146;52.268;20.944;2022-10-26T05:52:54;100655.14;;;13.34;74.03
44441;BME280;30146;52.268;20.944;2022-10-26T05:55:26;100660.62;;;13.35;74.14
44441;BME280;30146;52.268;20.944;2022-10-26T05:57:58;100660.77;;;13.36;74.06
44441;BME280;30146;52.268;20.944;2022-10-26T06:00:30;100661.10;;;13.37;74.14
44441;BME280;30146;52.268;20.944;2022-10-26T06:03:11;100661.41;;;13.38;74.12
44441;BME280;30146;52.268;20.944;2022-10-26T06:05:53;100664.66;;;13.39;74.16
44441;BME280;30146;52.268;20.944;2022-10-26T06:08:26;100665.00;;;13.40;74.07
44441;BME280;30146;52.268;20.944;2022-10-26T06:10:58;100667.39;;;13.41;73.93
44441;BME280;30146;52.268;20.944;2022-10-26T06:13:32;100667.38;;;13.42;73.88
44441;BME280;30146;52.268;20.944;2022-10-26T06:16:16;100674.40;;;13.43;73.82
44441;BME280;30146;52.268;20.944;2022-10-26T06:18:56;100672.51;;;13.43;73.86
44441;BME280;30146;52.268;20.944;2022-10-26T06:21:44;100676.77;;;13.44;73.96
44441;BME280;30146;52.268;20.944;2022-10-26T06:24:23;100679.19;;;13.44;73.77
44441;BME280;30146;52.268;20.944;2022-10-26T06:27:01;100681.59;;;13.44;73.68
44441;BME280;30146;52.268;20.944;2022-10-26T06:29:42;100680.23;;;13.43;73.69
44441;BME280;30146;52.268;20.944;2022-10-26T06:32:17;100687.60;;;13.44;73.71
44441;BME280;30146;52.268;20.944;2022-10-26T06:34:50;100687.25;;;13.44;73.80
44441;BME280;30146;52.268;20.944;2022-10-26T06:37:23;100685.02;;;13.45;73.76
44441;BME280;30146;52.268;20.944;2022-10-26T06:39:55;100686.70;;;13.46;73.73
44441;BME280;30146;52.268;20.944;2022-10-26T06:42:27;100694.06;;;13.48;73.80
44441;BME280;30146;52.268;20.944;2022-10-26T06:45:01;100696.79;;;13.50;73.70
44441;BME280;30146;52.268;20.944;2022-10-26T06:47:39;100698.29;;;13.52;73.69
44441;BME280;30146;52.268;20.944;2022-10-26T06:50:22;100704.28;;;13.54;73.62
44441;BME280;30146;52.268;20.944;2022-10-26T06:53:08;100702.37;;;13.55;73.55
44441;BME280;30146;52.268;20.944;2022-10-26T06:55:47;100699.41;;;13.58;73.55
44441;BME280;30146;52.268;20.944;2022-10-26T06:58:21;100700.73;;;13.61;73.66
44441;BME280;30146;52.268;20.944;2022-10-26T07:00:54;100702.72;;;13.65;73.57
44441;BME280;30146;52.268;20.944;2022-10-26T07:03:26;100701.81;;;13.68;73.62
44441;BME280;30146;52.268;20.944;2022-10-26T07:05:57;100704.16;;;13.72;73.50
44441;BME280;30146;52.268;20.944;2022-10-26T07:08:28;100703.76;;;13.76;73.44
44441;BME280;30146;52.268;20.944;2022-10-26T07:10:59;100707.52;;;13.76;73.17
44441;BME280;30146;52.268;20.944;2022-10-26T07:13:30;100707.65;;;13.79;73.13
44441;BME280;30146;52.268;20.944;2022-10-26T07:16:01;100713.29;;;13.80;73.11
44441;BME280;30146;52.268;20.944;2022-10-26T07:18:32;100713.13;;;13.80;73.03
44441;BME280;30146;52.268;20.944;2022-10-26T07:21:03;100714.88;;;13.79;72.82
44441;BME280;30146;52.268;20.944;2022-10-26T07:23:34;100716.79;;;13.77;72.66
44441;BME280;30146;52.268;20.944;2022-10-26T07:26:05;100720.08;;;13.76;72.59
44441;BME280;30146;52.268;20.944;2022-10-26T07:28:35;100722.16;;;13.75;72.62
44441;BME280;30146;52.268;20.944;2022-10-26T07:31:06;100724.08;;;13.73;72.67
44441;BME280;30146;52.268;20.944;2022-10-26T07:33:37;100722.03;;;13.72;72.57
44441;BME280;30146;52.268;20.944;2022-10-26T07:36:10;100726.38;;;13.69;72.58
44441;BME280;30146;52.268;20.944;2022-10-26T07:38:41;100720.17;;;13.69;72.63
44441;BME280;30146;52.268;20.944;2022-10-26T07:41:12;100720.09;;;13.74;72.77
44441;BME280;30146;52.268;20.944;2022-10-26T07:43:42;100722.77;;;13.79;72.72
44441;BME280;30146;52.268;20.944;2022-10-26T07:46:14;100721.86;;;13.81;72.68
44441;BME280;30146;52.268;20.944;2022-10-26T07:48:45;100728.89;;;13.83;72.62
44441;BME280;30146;52.268;20.944;2022-10-26T07:51:15;100731.11;;;13.83;72.48
44441;BME280;30146;52.268;20.944;2022-10-26T07:53:47;100731.45;;;13.83;72.36
44441;BME280;30146;52.268;20.944;2022-10-26T07:56:18;100731.33;;;13.81;72.20
44441;BME280;30146;52.268;20.944;2022-10-26T07:58:50;100731.52;;;13.79;72.08
44441;BME280;30146;52.268;20.944;2022-10-26T08:01:21;100733.08;;;13.79;72.18
44441;BME280;30146;52.268;20.944;2022-10-26T08:03:53;100743.38;;;13.79;72.19
44441;BME280;30146;52.268;20.944;2022-10-26T08:06:25;100744.11;;;13.76;71.88
44441;BME280;30146;52.268;20.944;2022-10-26T08:08:55;100752.04;;;13.75;72.02
44441;BME280;30146;52.268;20.944;2022-10-26T08:11:26;100754.31;;;13.73;71.95
44441;BME280;30146;52.268;20.944;2022-10-26T08:13:57;100757.95;;;13.71;71.84
44441;BME280;30146;52.268;20.944;2022-10-26T08:16:28;100762.10;;;13.67;71.83
44441;BME280;30146;52.268;20.944;2022-10-26T08:18:59;100764.55;;;13.66;71.88
44441;BME280;30146;52.268;20.944;2022-10-26T08:21:30;100761.82;;;13.64;71.88
44441;BME280;30146;52.268;20.944;2022-10-26T08:24:09;100764.10;;;13.62;71.77
44441;BME280;30146;52.268;20.944;2022-10-26T08:26:40;100766.35;;;13.61;71.85
44441;BME280;30146;52.268;20.944;2022-10-26T08:29:11;100763.31;;;13.58;71.74
44441;BME280;30146;52.268;20.944;2022-10-26T08:31:41;100761.81;;;13.54;71.53
44441;BME280;30146;52.268;20.944;2022-10-26T08:34:12;100764.95;;;13.50;71.46
44441;BME280;30146;52.268;20.944;2022-10-26T08:36:45;100765.33;;;13.47;71.54
44441;BME280;30146;52.268;20.944;2022-10-26T08:39:19;100771.03;;;13.46;71.66
44441;BME280;30146;52.268;20.944;2022-10-26T08:41:54;100772.42;;;13.45;71.59
44441;BME280;30146;52.268;20.944;2022-10-26T08:44:30;100776.92;;;13.42;71.64
44441;BME280;30146;52.268;20.944;2022-10-26T08:47:06;100780.88;;;13.41;71.81
44441;BME280;30146;52.268;20.944;2022-10-26T08:49:45;100778.30;;;13.42;71.74
44441;BME280;30146;52.268;20.944;2022-10-26T08:52:23;100779.86;;;13.41;71.82
44441;BME280;30146;52.268;20.944;2022-10-26T08:54:56;100782.77;;;13.42;71.80
44441;BME280;30146;52.268;20.944;2022-10-26T08:57:41;100781.55;;;13.43;71.98
44441;BME280;30146;52.268;20.944;2022-10-26T09:00:16;100784.10;;;13.45;72.09
44441;BME280;30146;52.268;20.944;2022-10-26T09:02:51;100784.40;;;13.47;72.23
44441;BME280;30146;52.268;20.944;2022-10-26T09:05:27;100789.02;;;13.48;72.06
44441;BME280;30146;52.268;20.944;2022-10-26T09:08:09;100790.40;;;13.49;72.03
44441;BME280;30146;52.268;20.944;2022-10-26T09:10:50;100794.33;;;13.49;71.98
44441;BME280;30146;52.268;20.944;2022-10-26T09:13:31;100796.06;;;13.48;71.93
44441;BME280;30146;52.268;20.944;2022-10-26T09:16:10;100797.11;;;13.47;72.00
44441;BME280;30146;52.268;20.944;2022-10-26T09:18:50;100799.49;;;13.48;72.19
44441;BME280;30146;52.268;20.944;2022-10-26T09:21:39;100801.89;;;13.50;72.24
44441;BME280;30146;52.268;20.944;2022-10-26T09:24:17;100806.70;;;13.50;72.12
44441;BME280;30146;52.268;20.944;2022-10-26T09:26:56;100806.70;;;13.49;72.12
44441;BME280;30146;52.268;20.944;2022-10-26T09:29:30;100809.45;;;13.50;72.18
44441;BME280;30146;52.268;20.944;2022-10-26T09:32:05;100810.95;;;13.53;72.31
44441;BME280;30146;52.268;20.944;2022-10-26T09:34:44;100814.16;;;13.56;72.37
44441;BME280;30146;52.268;20.944;2022-10-26T09:37:18;100823.23;;;13.59;72.31
44441;BME280;30146;52.268;20.944;2022-10-26T09:39:56;100825.25;;;13.62;72.35
44441;BME280;30146;52.268;20.944;2022-10-26T09:42:35;100824.72;;;13.63;72.20
44441;BME280;30146;52.268;20.944;2022-10-26T09:45:13;100828.82;;;13.64;72.10
44441;BME280;30146;52.268;20.944;2022-10-26T09:47:50;100831.72;;;13.65;72.28
44441;BME280;30146;52.268;20.944;2022-10-26T09:50:25;100833.88;;;13.70;72.39
44441;BME280;30146;52.268;20.944;2022-10-26T09:52:58;100830.38;;;13.75;72.54
44441;BME280;30146;52.268;20.944;2022-10-26T09:55:30;100827.70;;;13.83;72.65
44441;BME280;30146;52.268;20.944;2022-10-26T09:58:05;100831.56;;;13.88;72.33
44441;BME280;30146;52.268;20.944;2022-10-26T10:00:41;100833.42;;;13.90;72.24
44441;BME280;30146;52.268;20.944;2022-10-26T10:03:25;100835.80;;;13.92;72.06
44441;BME280;30146;52.268;20.944;2022-10-26T10:06:15;100835.63;;;13.93;72.03
44441;BME280;30146;52.268;20.944;2022-10-26T10:09:05;100837.14;;;13.95;72.01
44441;BME280;30146;52.268;20.944;2022-10-26T10:11:41;100837.43;;;13.98;72.03
44441;BME280;30146;52.268;20.944;2022-10-26T10:14:16;100836.50;;;14.03;72.10
44441;BME280;30146;52.268;20.944;2022-10-26T10:16:55;100834.69;;;14.09;72.17
44441;BME280;30146;52.268;20.944;2022-10-26T10:19:28;100834.81;;;14.12;72.01
44441;BME280;30146;52.268;20.944;2022-10-26T10:22:07;100832.02;;;14.13;71.81
44441;BME280;30146;52.268;20.944;2022-10-26T10:24:41;100829.23;;;14.16;71.89
44441;BME280;30146;52.268;20.944;2022-10-26T10:27:18;100832.27;;;14.19;71.90
44441;BME280;30146;52.268;20.944;2022-10-26T10:29:50;100828.98;;;14.20;71.65
44441;BME280;30146;52.268;20.944;2022-10-26T10:32:32;100826.90;;;14.22;71.77
44441;BME280;30146;52.268;20.944;2022-10-26T10:35:27;100825.59;;;14.28;71.91
44441;BME280;30146;52.268;20.944;2022-10-26T10:37:59;100826.88;;;14.33;71.79
44441;BME280;30146;52.268;20.944;2022-10-26T10:40:31;100825.13;;;14.35;71.71
44441;BME280;30146;52.268;20.944;2022-10-26T10:43:10;100823.87;;;14.38;71.65
44441;BME280;30146;52.268;20.944;2022-10-26T10:45:48;100826.22;;;14.51;71.87
44441;BME280;30146;52.268;20.944;2022-10-26T10:48:26;100824.30;;;14.64;71.97
44441;BME280;30146;52.268;20.944;2022-10-26T10:50:59;100823.08;;;14.74;71.86
44441;BME280;30146;52.268;20.944;2022-10-26T10:53:35;100822.94;;;14.81;71.56
44441;BME280;30146;52.268;20.944;2022-10-26T10:56:17;100820.23;;;14.88;71.35
44441;BME280;30146;52.268;20.944;2022-10-26T10:59:03;100823.89;;;14.94;71.12
44441;BME280;30146;52.268;20.944;2022-10-26T11:01:39;100830.65;;;15.00;70.95
44441;BME280;30146;52.268;20.944;2022-10-26T11:04:26;100830.88;;;15.07;70.80
44441;BME280;30146;52.268;20.944;2022-10-26T11:07:04;100826.80;;;15.13;70.65
44441;BME280;30146;52.268;20.944;2022-10-26T11:09:38;100830.44;;;15.19;70.72
44441;BME280;30146;52.268;20.944;2022-10-26T11:12:14;100832.45;;;15.22;70.43
44441;BME280;30146;52.268;20.944;2022-10-26T11:14:50;100833.67;;;15.21;70.03
44441;BME280;30146;52.268;20.944;2022-10-26T11:17:26;100836.13;;;15.19;69.81
44441;BME280;30146;52.268;20.944;2022-10-26T11:20:00;100835.52;;;15.16;69.68
44441;BME280;30146;52.268;20.944;2022-10-26T11:22:38;100838.46;;;15.15;69.79
44441;BME280;30146;52.268;20.944;2022-10-26T11:25:14;100844.70;;;15.13;69.67
44441;BME280;30146;52.268;20.944;2022-10-26T11:27:51;100840.44;;;15.11;69.66
44441;BME280;30146;52.268;20.944;2022-10-26T11:30:25;100846.84;;;15.09;69.60
44441;BME280;30146;52.268;20.944;2022-10-26T11:33:00;100847.40;;;15.07;69.68
44441;BME280;30146;52.268;20.944;2022-10-26T11:35:35;100848.27;;;15.06;69.61
44441;BME280;30146;52.268;20.944;2022-10-26T11:38:11;100847.05;;;15.07;69.61
44441;BME280;30146;52.268;20.944;2022-10-26T11:41:05;100854.64;;;15.06;69.51
44441;BME280;30146;52.268;20.944;2022-10-26T11:43:44;100852.39;;;15.07;69.51
44441;BME280;30146;52.268;20.944;2022-10-26T11:46:19;100851.73;;;15.06;69.49
44441;BME280;30146;52.268;20.944;2022-10-26T11:48:55;100856.24;;;15.04;69.40
44441;BME280;30146;52.268;20.944;2022-10-26T11:51:39;100855.94;;;15.02;69.51
44441;BME280;30146;52.268;20.944;2022-10-26T11:54:14;100851.66;;;15.00;69.58
44441;BME280;30146;52.268;20.944;2022-10-26T11:56:48;100853.73;;;15.00;69.60
44441;BME280;30146;52.268;20.944;2022-10-26T11:59:20;100854.58;;;15.00;69.63
44441;BME280;30146;52.268;20.944;2022-10-26T12:01:58;100853.40;;;14.99;69.54
44441;BME280;30146;52.268;20.944;2022-10-26T12:04:34;100858.94;;;14.98;69.54
44441;BME280;30146;52.268;20.944;2022-10-26T12:07:12;100863.31;;;14.94;69.61
44441;BME280;30146;52.268;20.944;2022-10-26T12:09:47;100865.44;;;14.91;69.53
44441;BME280;30146;52.268;20.944;2022-10-26T12:12:22;100865.83;;;14.89;69.61
44441;BME280;30146;52.268;20.944;2022-10-26T12:15:02;100870.17;;;14.87;69.61
44441;BME280;30146;52.268;20.944;2022-10-26T12:17:40;100872.42;;;14.86;69.71
44441;BME280;30146;52.268;20.944;2022-10-26T12:23:10;100868.60;;;14.87;69.71
44441;BME280;30146;52.268;20.944;2022-10-26T12:29:27;100863.42;;;14.88;69.79
44441;BME280;30146;52.268;20.944;2022-10-26T12:31:58;100865.77;;;14.92;69.81
44441;BME280;30146;52.268;20.944;2022-10-26T12:34:57;100867.77;;;14.95;69.82
44441;BME280;30146;52.268;20.944;2022-10-26T12:37:36;100868.73;;;14.99;69.74
44441;BME280;30146;52.268;20.944;2022-10-26T12:40:43;100869.37;;;15.01;69.57
44441;BME280;30146;52.268;20.944;2022-10-26T12:43:36;100871.27;;;15.01;69.47
44441;BME280;30146;52.268;20.944;2022-10-26T12:52:47;100868.98;;;14.94;69.42
44441;BME280;30146;52.268;20.944;2022-10-26T12:58:44;100868.75;;;14.89;69.45
44441;BME280;30146;52.268;20.944;2022-10-26T13:05:00;100874.20;;;14.82;69.43
44441;BME280;30146;52.268;20.944;2022-10-26T13:07:38;100872.36;;;14.79;69.58
44441;BME280;30146;52.268;20.944;2022-10-26T13:10:21;100868.96;;;14.77;69.46
44441;BME280;30146;52.268;20.944;2022-10-26T13:12:56;100872.79;;;14.75;69.51
44441;BME280;30146;52.268;20.944;2022-10-26T13:15:27;100869.91;;;14.72;69.37
44441;BME280;30146;52.268;20.944;2022-10-26T13:18:09;100872.85;;;14.72;69.37
44441;BME280;30146;52.268;20.944;2022-10-26T13:20:57;100869.77;;;14.71;69.53
44441;BME280;30146;52.268;20.944;2022-10-26T13:23:35;100871.32;;;14.70;69.63
44441;BME280;30146;52.268;20.944;2022-10-26T13:26:09;100869.63;;;14.69;69.69
44441;BME280;30146;52.268;20.944;2022-10-26T13:28:49;100867.75;;;14.68;69.59
44441;BME280;30146;52.268;20.944;2022-10-26T13:31:52;100868.10;;;14.68;69.68
44441;BME280;30146;52.268;20.944;2022-10-26T13:34:28;100866.58;;;14.67;69.52
44441;BME280;30146;52.268;20.944;2022-10-26T13:37:06;100866.08;;;14.66;69.49
44441;BME280;30146;52.268;20.944;2022-10-26T13:39:43;100870.73;;;14.65;69.52
44441;BME280;30146;52.268;20.944;2022-10-26T13:42:17;100871.40;;;14.67;69.69
44441;BME280;30146;52.268;20.944;2022-10-26T13:44:53;100868.95;;;14.69;69.71